Finest — WCW8374 — position and weather

sailwx.info

Track history (hours):
 
Tides and Currents Weather Stations Pressure Air Temp Water Temp Dewpoint Dewpoint Depression Visibility Wind Speed Wind Dir Waves Ship Positions

Finest

Owner: NEW YORK FAST FERRY SERVICES INC, MAMARONECK, NY. More information available from US FCC via Universal Licensing System and Coast Guard Vessel Documentation Center.

Last reported at 2015-Mar-27 12:34 UTC. Time now 2015-Mar-27 13:12 UTC.
Position N 40°36' W 074°03'.

Length 38 m.

Type: High speed craft. MMSI: 366990590.

Date/timePositionNaut miles runAvg speedWind from/ knotsBaromVisibWave heightAir tempDewpointWater temp
2015-Mar-27 12:34N 40°36' W 074°03'3 2.6
2015-Mar-27 11:34N 40°39' W 074°02'1 0.1
2015-Mar-26 22:31N 40°38' W 074°03'8 8.1
2015-Mar-26 21:30N 40°30' W 074°04'1213.1
2015-Mar-26 20:34N 40°42' W 074°01'5 4.6
2015-Mar-26 19:33N 40°46' W 074°01'0 0.0
2015-Mar-26 18:33N 40°46' W 074°01'0 0.0
2015-Mar-26 17:33N 40°46' W 074°01'0 0.0
2015-Mar-26 16:34N 40°46' W 074°01'0 0.0
2015-Mar-26 15:33N 40°46' W 074°01'0 0.0
2015-Mar-26 14:33N 40°46' W 074°01'0 0.0
2015-Mar-26 13:33N 40°46' W 074°01'1311.8
2015-Mar-26 12:29N 40°34' W 074°04'5 5.2
2015-Mar-26 11:33N 40°39' W 074°02'0 0.0
2015-Mar-25 22:34N 40°38' W 074°03'3 1.6
2015-Mar-25 20:34N 40°41' W 074°01'5 5.1
2015-Mar-25 19:33N 40°46' W 074°01'0 0.0
2015-Mar-25 18:33N 40°46' W 074°01'0 0.0
2015-Mar-25 17:33N 40°46' W 074°01'0 0.0
2015-Mar-25 16:33N 40°46' W 074°01'0 0.0
2015-Mar-25 15:33N 40°46' W 074°01'0 0.0
2015-Mar-25 14:33N 40°46' W 074°01'0 0.0
2015-Mar-25 13:33N 40°46' W 074°01'9 9.5
2015-Mar-25 12:34N 40°37' W 074°03'2 1.7
2015-Mar-25 11:34N 40°39' W 074°02'1 0.0
2015-Mar-24 22:33N 40°38' W 074°03'3 1.7
2015-Mar-24 20:33N 40°41' W 074°01'5 5.1
2015-Mar-24 19:33N 40°46' W 074°01'0 0.0
2015-Mar-24 18:33N 40°46' W 074°01'0 0.0
2015-Mar-24 17:33N 40°46' W 074°01'0 0.0
2015-Mar-24 16:33N 40°46' W 074°01'0 0.0
2015-Mar-24 15:33N 40°46' W 074°01'0 0.0
2015-Mar-24 14:33N 40°46' W 074°01'0 0.0
2015-Mar-24 13:34N 40°46' W 074°01'10 9.8
2015-Mar-24 12:33N 40°37' W 074°03'2 1.6
2015-Mar-24 11:33N 40°38' W 074°03'1 0.0
2015-Mar-23 22:33N 40°39' W 074°02'2 1.2
2015-Mar-23 20:34N 40°41' W 074°01'5 5.2
2015-Mar-23 19:33N 40°46' W 074°01'0 0.0
2015-Mar-23 18:33N 40°46' W 074°01'0 0.0
2015-Mar-23 17:33N 40°46' W 074°01'0 0.0
2015-Mar-23 16:33N 40°46' W 074°01'0 0.0
2015-Mar-23 15:33N 40°46' W 074°01'0 0.4
2015-Mar-23 14:33N 40°46' W 074°01'10 7.0
2015-Mar-23 13:06N 40°36' W 074°03'713.0
2015-Mar-23 12:33N 40°43' W 074°02'1 0.4
2015-Mar-23 10:33N 40°42' W 074°01'  
2015-Mar-20 22:33N 40°36' W 074°03'10 7.4
2015-Mar-20 21:14N 40°26' W 074°05'1624.0
2015-Mar-20 20:34N 40°42' W 074°00'5 4.5
2015-Mar-20 19:32N 40°46' W 074°01'0 0.0
2015-Mar-20 18:33N 40°46' W 074°01'0 0.0
2015-Mar-20 17:22N 40°46' W 074°01'0 0.0
2015-Mar-20 16:33N 40°46' W 074°01'0 0.0
2015-Mar-20 15:33N 40°46' W 074°01'0 0.0
2015-Mar-20 14:33N 40°46' W 074°01'0 0.0
2015-Mar-20 13:33N 40°46' W 074°01'7 7.2
2015-Mar-20 12:34N 40°39' W 074°02'2 2.2
2015-Mar-20 11:33N 40°37' W 074°03'0 0.0
2015-Mar-19 22:33N 40°37' W 074°03'9 8.8
2015-Mar-19 21:30N 40°28' W 074°04'1414.8
2015-Mar-19 20:33N 40°41' W 074°01'5 5.1
2015-Mar-19 19:33N 40°46' W 074°01'0 0.0
2015-Mar-19 18:33N 40°46' W 074°01'0 0.0
2015-Mar-19 17:33N 40°46' W 074°01'0 0.0
2015-Mar-19 16:34N 40°46' W 074°01'0 0.0
2015-Mar-19 15:34N 40°46' W 074°01'0 0.0
2015-Mar-19 14:33N 40°46' W 074°01'0 0.0
2015-Mar-19 13:33N 40°46' W 074°01'9 8.6
2015-Mar-19 12:33N 40°38' W 074°03'1 0.9
2015-Mar-19 11:33N 40°37' W 074°03'11 8.5
2015-Mar-19 10:15N 40°26' W 074°05'10 0.9
2015-Mar-18 22:34N 40°36' W 074°03'6 3.0
2015-Mar-18 20:34N 40°41' W 074°00'5 4.6
2015-Mar-18 19:31N 40°46' W 074°01'0 0.0
2015-Mar-18 18:32N 40°46' W 074°01'0 0.0
2015-Mar-18 17:32N 40°46' W 074°01'0 0.0
2015-Mar-18 16:33N 40°46' W 074°01'0 0.0
2015-Mar-18 15:31N 40°46' W 074°01'0 0.0
2015-Mar-18 14:15N 40°46' W 074°01'0 0.0
2015-Mar-18 13:33N 40°46' W 074°01'8 8.4
2015-Mar-18 12:33N 40°38' W 074°03'1 1.4
2015-Mar-18 11:33N 40°37' W 074°03'1 0.1
2015-Mar-17 22:32N 40°38' W 074°03'4 1.8
2015-Mar-17 20:33N 40°41' W 074°01'5 4.8
2015-Mar-17 19:33N 40°46' W 074°01'0 0.0
2015-Mar-17 18:33N 40°46' W 074°01'0 0.0
2015-Mar-17 17:34N 40°46' W 074°01'0 0.0
2015-Mar-17 16:34N 40°46' W 074°01'0 0.0
2015-Mar-17 15:34N 40°46' W 074°01'0 0.0
2015-Mar-17 14:33N 40°46' W 074°01'0 0.0
2015-Mar-17 13:34N 40°46' W 074°01'  
Track history (hours):
 
Tides and Currents Weather Stations Pressure Air Temp Water Temp Dewpoint Dewpoint Depression Visibility Wind Speed Wind Dir Waves Ship Positions

Finest

Owner: NEW YORK FAST FERRY SERVICES INC, MAMARONECK, NY. More information available from US FCC via Universal Licensing System and Coast Guard Vessel Documentation Center.

Last reported at 2015-Mar-27 12:34 UTC. Time now 2015-Mar-27 13:12 UTC.
Position N 40°36' W 074°03'.

Length 38 m.

Type: High speed craft. MMSI: 366990590.

Date/timePositionNaut miles runAvg speedWind from/ knotsBaromVisibWave heightAir tempDewpointWater temp
2015-Mar-27 12:34N 40°36' W 074°03'3 2.6
2015-Mar-27 11:34N 40°39' W 074°02'1 0.1
2015-Mar-26 22:31N 40°38' W 074°03'8 8.1
2015-Mar-26 21:30N 40°30' W 074°04'1213.1
2015-Mar-26 20:34N 40°42' W 074°01'5 4.6
2015-Mar-26 19:33N 40°46' W 074°01'0 0.0
2015-Mar-26 18:33N 40°46' W 074°01'0 0.0
2015-Mar-26 17:33N 40°46' W 074°01'0 0.0
2015-Mar-26 16:34N 40°46' W 074°01'0 0.0
2015-Mar-26 15:33N 40°46' W 074°01'0 0.0
2015-Mar-26 14:33N 40°46' W 074°01'0 0.0
2015-Mar-26 13:33N 40°46' W 074°01'1311.8
2015-Mar-26 12:29N 40°34' W 074°04'5 5.2
2015-Mar-26 11:33N 40°39' W 074°02'0 0.0
2015-Mar-25 22:34N 40°38' W 074°03'3 1.6
2015-Mar-25 20:34N 40°41' W 074°01'5 5.1
2015-Mar-25 19:33N 40°46' W 074°01'0 0.0
2015-Mar-25 18:33N 40°46' W 074°01'0 0.0
2015-Mar-25 17:33N 40°46' W 074°01'0 0.0
2015-Mar-25 16:33N 40°46' W 074°01'0 0.0
2015-Mar-25 15:33N 40°46' W 074°01'0 0.0
2015-Mar-25 14:33N 40°46' W 074°01'0 0.0
2015-Mar-25 13:33N 40°46' W 074°01'9 9.5
2015-Mar-25 12:34N 40°37' W 074°03'2 1.7
2015-Mar-25 11:34N 40°39' W 074°02'1 0.0
2015-Mar-24 22:33N 40°38' W 074°03'3 1.7
2015-Mar-24 20:33N 40°41' W 074°01'5 5.1
2015-Mar-24 19:33N 40°46' W 074°01'0 0.0
2015-Mar-24 18:33N 40°46' W 074°01'0 0.0
2015-Mar-24 17:33N 40°46' W 074°01'0 0.0
2015-Mar-24 16:33N 40°46' W 074°01'0 0.0
2015-Mar-24 15:33N 40°46' W 074°01'0 0.0
2015-Mar-24 14:33N 40°46' W 074°01'0 0.0
2015-Mar-24 13:34N 40°46' W 074°01'10 9.8
2015-Mar-24 12:33N 40°37' W 074°03'2 1.6
2015-Mar-24 11:33N 40°38' W 074°03'1 0.0
2015-Mar-23 22:33N 40°39' W 074°02'2 1.2
2015-Mar-23 20:34N 40°41' W 074°01'5 5.2
2015-Mar-23 19:33N 40°46' W 074°01'0 0.0
2015-Mar-23 18:33N 40°46' W 074°01'0 0.0
2015-Mar-23 17:33N 40°46' W 074°01'0 0.0
2015-Mar-23 16:33N 40°46' W 074°01'0 0.0
2015-Mar-23 15:33N 40°46' W 074°01'0 0.4
2015-Mar-23 14:33N 40°46' W 074°01'10 7.0
2015-Mar-23 13:06N 40°36' W 074°03'713.0
2015-Mar-23 12:33N 40°43' W 074°02'1 0.4
2015-Mar-23 10:33N 40°42' W 074°01'  
2015-Mar-20 22:33N 40°36' W 074°03'10 7.4
2015-Mar-20 21:14N 40°26' W 074°05'1624.0
2015-Mar-20 20:34N 40°42' W 074°00'5 4.5
2015-Mar-20 19:32N 40°46' W 074°01'0 0.0
2015-Mar-20 18:33N 40°46' W 074°01'0 0.0
2015-Mar-20 17:22N 40°46' W 074°01'0 0.0
2015-Mar-20 16:33N 40°46' W 074°01'0 0.0
2015-Mar-20 15:33N 40°46' W 074°01'0 0.0
2015-Mar-20 14:33N 40°46' W 074°01'0 0.0
2015-Mar-20 13:33N 40°46' W 074°01'7 7.2
2015-Mar-20 12:34N 40°39' W 074°02'2 2.2
2015-Mar-20 11:33N 40°37' W 074°03'0 0.0
2015-Mar-19 22:33N 40°37' W 074°03'9 8.8
2015-Mar-19 21:30N 40°28' W 074°04'1414.8
2015-Mar-19 20:33N 40°41' W 074°01'5 5.1
2015-Mar-19 19:33N 40°46' W 074°01'0 0.0
2015-Mar-19 18:33N 40°46' W 074°01'0 0.0
2015-Mar-19 17:33N 40°46' W 074°01'0 0.0
2015-Mar-19 16:34N 40°46' W 074°01'0 0.0
2015-Mar-19 15:34N 40°46' W 074°01'0 0.0
2015-Mar-19 14:33N 40°46' W 074°01'0 0.0
2015-Mar-19 13:33N 40°46' W 074°01'9 8.6
2015-Mar-19 12:33N 40°38' W 074°03'1 0.9
2015-Mar-19 11:33N 40°37' W 074°03'11 8.5
2015-Mar-19 10:15N 40°26' W 074°05'10 0.9
2015-Mar-18 22:34N 40°36' W 074°03'6 3.0
2015-Mar-18 20:34N 40°41' W 074°00'5 4.6
2015-Mar-18 19:31N 40°46' W 074°01'0 0.0
2015-Mar-18 18:32N 40°46' W 074°01'0 0.0
2015-Mar-18 17:32N 40°46' W 074°01'0 0.0
2015-Mar-18 16:33N 40°46' W 074°01'0 0.0
2015-Mar-18 15:31N 40°46' W 074°01'0 0.0
2015-Mar-18 14:15N 40°46' W 074°01'0 0.0
2015-Mar-18 13:33N 40°46' W 074°01'8 8.4
2015-Mar-18 12:33N 40°38' W 074°03'1 1.4
2015-Mar-18 11:33N 40°37' W 074°03'1 0.1
2015-Mar-17 22:32N 40°38' W 074°03'4 1.8
2015-Mar-17 20:33N 40°41' W 074°01'5 4.8
2015-Mar-17 19:33N 40°46' W 074°01'0 0.0
2015-Mar-17 18:33N 40°46' W 074°01'0 0.0
2015-Mar-17 17:34N 40°46' W 074°01'0 0.0
2015-Mar-17 16:34N 40°46' W 074°01'0 0.0
2015-Mar-17 15:34N 40°46' W 074°01'0 0.0
2015-Mar-17 14:33N 40°46' W 074°01'0 0.0
2015-Mar-17 13:34N 40°46' W 074°01'  

Dump ship's entire track history